Accueil
METAR-TAF:

METAR-TAF

Aéroports :

Téhéran, Iran

Aéroport international Mehrabad

latitude: 35-41N, longitude: 051-21E, altitude: 1204 m

Observation

Le bulletin a été fait il y a 18 minutes, à 04:30 UTC
Vent calme
Température 17°C
Humidité 20%
Pression 1017 hPa
Visibilité 10 km ou plus
pas de nuages en-dessous de 1500 mètres et pas de cumulonimbus.

METAR: OIII 220430Z 00000KT CAVOK 17/M06 Q1017 A3004 NOSIG

Heure: 08:18 (04:48 UTC)

Prévision

Le bulletin a été fait il y a 5 heures et 48 minutes, à 23:00 UTC
Prévision valable du 22 à 00 UTC au 23 à 06 UTC
Vent 8 kt de nord-ouest
Visibilité 10 km ou plus
pas de nuages en-dessous de 1500 mètres et pas de cumulonimbus.
Evoluant progressivement
du 22 à 05 UTC au 22 à 06 UTC
Vent 8 kt de sud/sud-est
Evoluant progressivement
du 22 à 16 UTC au 22 à 18 UTC
Vent 8 kt de nord-ouest

TAF: OIII 212300Z 2200/2306 32004MPS CAVOK BECMG 2205/2206 15004MPS BECMG 2216/2218 32004MPS

Observations et prévisions météorologiques de plus de 4000 aéroports (messages METAR et TAF).

Les stations disponibles sont représentées par des disques jaunes et rouges sur la carte.

Passer la souris dessus pour voir le nom de la station.

Cliquer dessus pour voir les observations et prévisions météorologiques.

Pour changer de carte: cliquez sur les boutons verts avec une croix noire pour zoomer, sur le bouton vert avec un tiret pour effectuer un zoom arrière, ou sur les flèches vertes pour les cartes adjacentes.


METAR-TAF: